Time;durP1;ratioP1;P1;durP2;ratioP2;P2;SDS_P1;SDS_P2;PMS_P1;PMS_P2;Temp;Humidity;BMP_temperature;BMP_pressure;BME280_temperature;BME280_humidity;BME280_pressure;Samples;Min_cycle;Max_cycle;Signal;HPM_P1;HPM_P2
2021/01/07 00:00:06;;;;;;;93.15;43.52;;;;;;;0.36;94.14;99939.47;1750994;81;21751;-82
2021/01/07 00:02:34;;;;;;;88.15;41.75;;;;;;;0.36;94.13;99941.25;1750137;81;21184;-82
2021/01/07 00:05:00;;;;;;;89.07;41.23;;;;;;;0.36;94.14;99939.47;1743281;81;22658;-82
2021/01/07 00:07:27;;;;;;;186.60;93.35;;;;;;;0.36;94.17;99941.25;1736920;82;21187;-82
2021/01/07 00:09:53;;;;;;;165.55;92.02;;;;;;;0.38;94.15;99942.83;1736297;82;21222;-82
2021/01/07 00:12:19;;;;;;;128.75;66.00;;;;;;;0.37;94.16;99942.46;1736979;82;21215;-81
2021/01/07 00:14:45;;;;;;;116.20;61.15;;;;;;;0.38;94.17;99938.06;1746010;81;21147;-81
2021/01/07 00:17:12;;;;;;;114.72;62.00;;;;;;;0.40;94.17;99944.84;1765513;81;21210;-83
2021/01/07 00:19:38;;;;;;;85.03;44.50;;;;;;;0.41;94.17;99943.06;1758591;81;21202;-83
2021/01/07 00:22:04;;;;;;;87.08;43.87;;;;;;;0.43;94.19;99947.23;1753364;81;21203;-83
2021/01/07 00:24:31;;;;;;;86.17;39.10;;;;;;;0.41;94.18;99942.59;1747673;81;21153;-83
2021/01/07 00:26:57;;;;;;;78.80;39.92;;;;;;;0.41;94.18;99937.34;1736779;82;21168;-83
2021/01/07 00:29:23;;;;;;;86.10;44.90;;;;;;;0.39;94.20;99935.30;1766282;81;22157;-82
2021/01/07 00:31:50;;;;;;;84.07;43.70;;;;;;;0.38;94.21;99928.41;1767028;81;21163;-83
2021/01/07 00:34:16;;;;;;;94.17;47.85;;;;;;;0.39;94.21;99937.08;1767227;81;21222;-83
2021/01/07 00:36:42;;;;;;;94.28;48.00;;;;;;;0.39;94.21;99937.92;1767343;81;21546;-83
2021/01/07 00:39:08;;;;;;;69.42;35.08;;;;;;;0.41;94.21;99937.34;1763267;81;21219;-82
2021/01/07 00:41:35;;;;;;;79.32;42.78;;;;;;;0.42;94.21;99939.00;1746099;81;22209;-82
2021/01/07 00:44:01;;;;;;;72.30;36.88;;;;;;;0.40;94.21;99935.67;1755567;81;21199;-82
2021/01/07 00:46:27;;;;;;;77.55;40.17;;;;;;;0.40;94.21;99935.67;1757278;81;21206;-82
2021/01/07 00:48:54;;;;;;;90.77;46.68;;;;;;;0.39;94.21;99931.37;1766921;81;21726;-83
2021/01/07 00:51:20;;;;;;;83.97;42.38;;;;;;;0.38;94.21;99932.81;1763056;81;21140;-82
2021/01/07 00:53:46;;;;;;;96.05;51.75;;;;;;;0.37;94.22;99931.97;1755004;81;22195;-82
2021/01/07 00:56:12;;;;;;;75.20;38.60;;;;;;;0.39;94.21;99935.77;1751269;81;21364;-83
2021/01/07 00:58:39;;;;;;;78.67;42.20;;;;;;;0.37;94.21;99939.84;1754729;81;21231;-83
2021/01/07 01:01:05;;;;;;;73.20;38.25;;;;;;;0.36;94.19;99939.47;1748156;81;21170;-83
2021/01/07 01:03:31;;;;;;;81.53;42.98;;;;;;;0.37;94.20;99938.53;1737472;81;21163;-83
2021/01/07 01:05:57;;;;;;;105.10;58.13;;;;;;;0.39;94.20;99940.55;1740972;81;22114;-83
2021/01/07 01:08:24;;;;;;;98.30;52.03;;;;;;;0.40;94.19;99941.38;1764407;81;21187;-83
2021/01/07 01:10:52;;;;;;;79.92;38.02;;;;;;;0.40;94.18;99939.60;1739388;81;21171;-83
2021/01/07 01:13:18;;;;;;;73.30;37.30;;;;;;;0.40;94.20;99936.98;1759348;81;23878;-83
2021/01/07 01:15:44;;;;;;;85.32;40.65;;;;;;;0.38;94.20;99937.59;1761713;81;21171;-83
2021/01/07 01:18:11;;;;;;;91.35;49.05;;;;;;;0.37;94.20;99937.22;1763851;80;21191;-83
2021/01/07 01:20:37;;;;;;;69.32;39.27;;;;;;;0.35;94.19;99933.86;1731557;81;21695;-83
2021/01/07 01:23:06;;;;;;;58.33;28.20;;;;;;;0.34;94.20;99937.92;1731883;81;21232;-83
2021/01/07 01:25:33;;;;;;;101.45;55.95;;;;;;;0.33;94.16;99940.18;1764504;81;21195;-83
2021/01/07 01:28:00;;;;;;;100.05;56.58;;;;;;;0.30;94.18;99937.33;1760175;81;21144;-83
2021/01/07 01:30:26;;;;;;;98.35;50.08;;;;;;;0.29;94.16;99939.58;1751628;81;21203;-83
2021/01/07 01:32:52;;;;;;;92.30;44.58;;;;;;;0.28;94.13;99933.97;1765160;81;21148;-83
2021/01/07 01:35:19;;;;;;;72.53;34.18;;;;;;;0.26;94.16;99930.64;1765327;81;21608;-83
2021/01/07 01:37:45;;;;;;;63.80;30.92;;;;;;;0.25;94.16;99947.31;1748754;81;21175;-84
2021/01/07 01:40:13;;;;;;;73.95;29.60;;;;;;;0.27;94.15;99948.05;1734571;82;21175;-83
2021/01/07 01:42:39;;;;;;;58.08;26.17;;;;;;;0.32;94.15;99943.27;1768799;80;21922;-83
2021/01/07 01:45:07;;;;;;;57.40;25.45;;;;;;;0.32;94.16;99943.27;1768878;81;21131;-83
2021/01/07 01:47:33;;;;;;;60.20;28.02;;;;;;;0.31;94.16;99938.16;1758264;81;21159;-82
2021/01/07 01:50:00;;;;;;;63.50;28.90;;;;;;;0.29;94.16;99942.67;1741662;81;21156;-82
2021/01/07 01:52:26;;;;;;;69.82;30.77;;;;;;;0.29;94.16;99939.58;1757538;81;21222;-82
2021/01/07 01:54:52;;;;;;;70.10;31.97;;;;;;;0.27;94.18;99936.72;1738704;81;21206;-82
2021/01/07 01:57:19;;;;;;;64.53;28.85;;;;;;;0.29;94.15;99933.02;1742667;82;21171;-82
2021/01/07 01:59:45;;;;;;;76.45;33.90;;;;;;;0.27;94.16;99934.94;1736158;81;21196;-83
2021/01/07 02:02:17;;;;;;;65.22;31.12;;;;;;;0.28;94.16;99935.78;1754569;81;21171;-83
2021/01/07 02:04:47;;;;;;;66.87;30.52;;;;;;;0.26;94.17;99928.02;1759326;81;21207;-83
2021/01/07 02:07:16;;;;;;;75.62;32.80;;;;;;;0.25;94.16;99934.20;1752122;81;21180;-83
2021/01/07 02:09:43;;;;;;;67.78;31.73;;;;;;;0.26;94.17;99931.95;1738188;82;21765;-83
2021/01/07 02:12:11;;;;;;;60.35;27.95;;;;;;;0.25;94.17;99934.20;1729365;83;21730;-83
2021/01/07 02:14:46;;;;;;;77.10;29.42;;;;;;;0.25;94.17;99928.95;1729220;83;21711;-83
2021/01/07 02:17:13;;;;;;;99.05;37.70;;;;;;;0.22;94.17;99927.88;1738664;81;21128;-83
2021/01/07 02:19:39;;;;;;;124.50;58.20;;;;;;;0.22;94.17;99925.73;1755205;81;22200;-83
2021/01/07 02:22:06;;;;;;;152.10;69.37;;;;;;;0.21;94.18;99924.89;1734648;81;21588;-83
2021/01/07 02:24:32;;;;;;;106.10;47.05;;;;;;;0.20;94.20;99924.55;1728884;83;21168;-83
2021/01/07 02:27:03;;;;;;;104.70;39.00;;;;;;;0.19;94.19;99920.25;1736068;81;21199;-83
2021/01/07 02:29:43;;;;;;;125.60;48.73;;;;;;;0.22;94.19;99918.70;1848673;77;21872;-83
2021/01/07 02:32:09;;;;;;;116.20;44.20;;;;;;;0.17;94.18;99919.55;1770987;79;21175;-84
2021/01/07 02:34:35;;;;;;;97.97;35.45;;;;;;;0.17;94.17;99916.09;1738108;81;21588;-84
2021/01/07 02:37:02;;;;;;;95.45;36.48;;;;;;;0.14;94.20;99915.82;1757185;80;21154;-85
2021/01/07 02:39:28;;;;;;;63.83;23.67;;;;;;;0.12;94.19;99911.66;1756637;81;21123;-85
2021/01/07 02:41:55;;;;;;;82.05;36.95;;;;;;;0.10;94.19;99914.41;1756189;80;21147;-85
2021/01/07 02:44:22;;;;;;;85.83;35.20;;;;;;;0.09;94.17;99909.27;1724728;81;21152;-85
2021/01/07 02:46:49;;;;;;;80.97;34.73;;;;;;;0.09;94.17;99912.73;1761077;80;22126;-85
2021/01/07 02:49:16;;;;;;;112.95;54.15;;;;;;;0.09;94.18;99909.27;1754864;81;21557;-84
2021/01/07 02:51:43;;;;;;;81.45;38.38;;;;;;;0.08;94.17;99911.05;1777304;80;21561;-85
2021/01/07 02:54:09;;;;;;;75.40;35.65;;;;;;;0.06;94.20;99912.96;1787856;80;21182;-84
2021/01/07 02:56:35;;;;;;;74.97;29.87;;;;;;;0.05;94.19;99913.91;1754830;81;21129;-85
2021/01/07 02:59:02;;;;;;;81.67;36.10;;;;;;;0.05;94.18;99911.28;1778206;80;21223;-86
2021/01/07 03:01:28;;;;;;;61.10;27.75;;;;;;;0.04;94.18;99909.61;1724969;81;21734;-85
2021/01/07 03:03:55;;;;;;;68.97;29.23;;;;;;;0.06;94.17;99911.66;1718818;81;21649;-85
2021/01/07 03:06:23;;;;;;;76.55;30.77;;;;;;;0.05;94.18;99906.04;1751617;81;21184;-85
2021/01/07 03:08:49;;;;;;;75.10;37.13;;;;;;;0.05;94.18;99906.04;1768054;81;21190;-84
2021/01/07 03:11:16;;;;;;;83.70;42.98;;;;;;;0.04;94.19;99909.61;1787628;80;21193;-84
2021/01/07 03:13:42;;;;;;;72.82;37.15;;;;;;;0.04;94.18;99903.52;1787464;80;21147;-85
2021/01/07 03:16:09;;;;;;;102.07;48.02;;;;;;;0.01;94.18;99907.22;1755035;81;21232;-85
2021/01/07 03:18:35;;;;;;;86.65;41.80;;;;;;;0.02;94.21;99910.20;1787883;79;21143;-85
2021/01/07 03:21:02;;;;;;;86.30;39.50;;;;;;;0.00;94.20;99908.19;1754918;81;21168;-84
2021/01/07 03:23:29;;;;;;;63.65;26.62;;;;;;;-0.01;94.21;99908.66;1787689;80;22017;-84
2021/01/07 03:25:55;;;;;;;74.95;27.77;;;;;;;-0.01;94.20;99908.66;1752917;81;21163;-84
2021/01/07 03:28:21;;;;;;;79.00;31.97;;;;;;;-0.01;94.21;99914.38;1773129;80;21128;-84
2021/01/07 03:30:48;;;;;;;73.20;31.27;;;;;;;-0.01;94.21;99911.75;1740016;81;21180;-84
2021/01/07 03:33:15;;;;;;;78.65;34.15;;;;;;;0.00;94.21;99918.67;1785167;80;21099;-84
2021/01/07 03:35:41;;;;;;;91.40;41.08;;;;;;;-0.01;94.21;99909.13;1752858;81;21578;-85
2021/01/07 03:38:08;;;;;;;107.43;51.40;;;;;;;0.00;94.22;99912.13;1724737;83;21219;-85
2021/01/07 03:40:34;;;;;;;108.80;50.08;;;;;;;0.01;94.22;99904.59;1758242;80;21134;-85
2021/01/07 03:43:00;;;;;;;99.22;43.55;;;;;;;0.00;94.23;99906.88;1755834;80;21174;-84
2021/01/07 03:45:26;;;;;;;65.90;27.73;;;;;;;-0.01;94.23;99899.96;1724435;83;21105;-84
2021/01/07 03:47:54;;;;;;;91.37;33.15;;;;;;;-0.03;94.21;99903.16;1757966;80;21250;-86
2021/01/07 03:50:21;;;;;;;66.33;26.85;;;;;;;-0.05;94.22;99898.52;1731806;81;21157;-85
2021/01/07 03:52:47;;;;;;;80.20;27.52;;;;;;;-0.05;94.21;99898.52;1758589;81;21644;-85
2021/01/07 03:55:13;;;;;;;68.28;27.58;;;;;;;-0.07;94.23;99897.81;1756089;81;21207;-85
2021/01/07 03:57:40;;;;;;;71.72;27.70;;;;;;;-0.08;94.20;99890.89;1786887;80;21150;-85
2021/01/07 04:00:07;;;;;;;116.10;48.63;;;;;;;-0.06;94.21;99896.84;1753940;81;22136;-84
2021/01/07 04:02:33;;;;;;;124.82;48.85;;;;;;;-0.07;94.22;99892.06;1786527;80;21214;-85
2021/01/07 04:04:59;;;;;;;201.60;91.10;;;;;;;-0.04;94.21;99897.10;1754513;81;21546;-85
2021/01/07 04:07:26;;;;;;;145.15;57.00;;;;;;;-0.03;94.21;99899.22;1782911;80;21568;-85
2021/01/07 04:09:52;;;;;;;110.88;41.83;;;;;;;-0.04;94.21;99901.03;1740476;81;21164;-85
2021/01/07 04:12:18;;;;;;;109.80;48.40;;;;;;;-0.05;94.22;99901.13;1785159;80;21251;-85
2021/01/07 04:14:44;;;;;;;99.20;35.95;;;;;;;-0.05;94.23;99897.20;1754153;81;21172;-85
2021/01/07 04:17:11;;;;;;;86.87;36.77;;;;;;;-0.07;94.24;99899.12;1785034;80;21711;-85
2021/01/07 04:19:37;;;;;;;90.45;35.55;;;;;;;-0.07;94.23;99897.81;1753636;81;21136;-86
2021/01/07 04:22:03;;;;;;;72.08;30.05;;;;;;;-0.07;94.23;99899.12;1753150;81;21166;-86
2021/01/07 04:24:30;;;;;;;65.92;28.73;;;;;;;-0.08;94.21;99895.66;1784944;80;21203;-85
2021/01/07 04:26:56;;;;;;;99.90;41.92;;;;;;;-0.08;94.24;99898.75;1754021;81;21184;-86
2021/01/07 04:29:24;;;;;;;75.90;35.98;;;;;;;-0.07;94.24;99896.50;1758471;80;21206;-84
2021/01/07 04:31:50;;;;;;;88.50;40.58;;;;;;;-0.08;94.24;99898.28;1783679;80;21587;-86
2021/01/07 04:34:16;;;;;;;81.12;35.65;;;;;;;-0.10;94.22;99894.92;1759109;80;21155;-86
2021/01/07 04:36:43;;;;;;;87.55;33.20;;;;;;;-0.08;94.23;99894.81;1774593;79;21190;-86
2021/01/07 04:39:09;;;;;;;78.50;31.00;;;;;;;-0.06;94.24;99900.77;1782095;80;21187;-85
2021/01/07 04:41:35;;;;;;;80.15;31.77;;;;;;;-0.09;94.24;99902.31;1759209;80;21224;-85
2021/01/07 04:44:02;;;;;;;84.70;30.60;;;;;;;-0.10;94.23;99894.92;1758843;81;21624;-85
2021/01/07 04:46:28;;;;;;;82.65;30.45;;;;;;;-0.10;94.23;99899.32;1759213;80;21150;-85
2021/01/07 04:48:54;;;;;;;86.12;28.17;;;;;;;-0.10;94.23;99900.63;1758950;81;21194;-86
2021/01/07 04:51:21;;;;;;;75.00;28.92;;;;;;;-0.12;94.24;99896.83;1758887;81;21211;-85
2021/01/07 04:53:48;;;;;;;99.37;37.55;;;;;;;-0.10;94.24;99904.56;1758887;81;21613;-85
2021/01/07 04:56:14;;;;;;;126.30;48.78;;;;;;;-0.12;94.25;99902.55;1758742;81;21773;-86
2021/01/07 04:58:41;;;;;;;95.47;38.70;;;;;;;-0.12;94.25;99902.55;1775958;80;21103;-86
2021/01/07 05:01:09;;;;;;;95.47;29.40;;;;;;;-0.13;94.25;99908.25;1789592;80;21368;-86
2021/01/07 05:03:36;;;;;;;88.33;31.52;;;;;;;-0.15;94.24;99910.64;1785092;80;21187;-86
2021/01/07 05:06:04;;;;;;;95.07;32.93;;;;;;;-0.16;94.23;99906.34;1761148;80;21154;-86
2021/01/07 05:08:31;;;;;;;108.50;40.43;;;;;;;-0.16;94.25;99907.65;1761215;80;21175;-85
2021/01/07 05:10:58;;;;;;;103.55;37.38;;;;;;;-0.15;94.24;99907.55;1759073;81;21186;-87
2021/01/07 05:13:26;;;;;;;99.30;35.03;;;;;;;-0.12;94.25;99906.00;1758932;80;21167;-86
2021/01/07 05:15:53;;;;;;;109.22;38.33;;;;;;;-0.13;94.25;99904.80;1758860;81;21155;-87
2021/01/07 05:18:20;;;;;;;106.00;39.20;;;;;;;-0.14;94.24;99910.50;1760934;80;21173;-86
2021/01/07 05:20:48;;;;;;;117.33;55.12;;;;;;;-0.14;94.25;99905.77;1759443;80;21123;-86
2021/01/07 05:23:15;;;;;;;94.50;41.92;;;;;;;-0.12;94.25;99911.72;1760895;80;21143;-87
2021/01/07 05:25:42;;;;;;;108.85;44.48;;;;;;;-0.12;94.25;99914.34;1759059;80;21785;-86
2021/01/07 05:28:10;;;;;;;98.52;42.38;;;;;;;-0.15;94.26;99912.79;1767596;80;21175;-87
2021/01/07 05:30:38;;;;;;;134.82;55.48;;;;;;;-0.15;94.25;99914.56;1727224;81;21187;-86
2021/01/07 05:33:09;;;;;;;114.40;40.75;;;;;;;-0.16;94.23;99915.50;1769359;80;21146;-86
2021/01/07 05:35:37;;;;;;;86.95;37.78;;;;;;;-0.15;94.25;99919.81;1761983;80;21123;-86
2021/01/07 05:38:08;;;;;;;87.05;37.85;;;;;;;-0.15;94.25;99923.73;1763761;80;22043;-86
2021/01/07 05:40:38;;;;;;;92.97;39.70;;;;;;;-0.15;94.26;99918.50;1761428;81;21155;-87
2021/01/07 05:43:11;;;;;;;109.45;50.17;;;;;;;-0.16;94.25;99912.89;1709766;81;21948;-85
2021/01/07 05:45:39;;;;;;;132.47;64.20;;;;;;;-0.16;94.26;99921.59;1792444;80;21134;-86
2021/01/07 05:48:07;;;;;;;117.40;61.95;;;;;;;-0.17;94.26;99915.14;1792924;79;21178;-86
2021/01/07 05:50:40;;;;;;;146.28;75.80;;;;;;;-0.17;94.25;99923.00;1792813;79;21202;-86
2021/01/07 05:53:07;;;;;;;100.78;56.45;;;;;;;-0.18;94.26;99919.57;1792755;80;21587;-87
2021/01/07 05:55:35;;;;;;;118.65;60.33;;;;;;;-0.17;94.26;99920.38;1768948;80;21158;-86
2021/01/07 05:58:02;;;;;;;109.27;51.35;;;;;;;-0.17;94.26;99916.45;1761837;80;21517;-86
2021/01/07 06:00:31;;;;;;;172.17;81.42;;;;;;;-0.17;94.27;99915.14;1768163;80;21130;-86
2021/01/07 06:03:01;;;;;;;185.07;92.25;;;;;;;-0.17;94.27;99915.14;1792892;79;21589;-86
2021/01/07 06:05:29;;;;;;;132.50;68.80;;;;;;;-0.16;94.26;99919.44;1766629;79;21158;-86
2021/01/07 06:07:58;;;;;;;122.55;57.85;;;;;;;-0.18;94.28;99915.64;1761775;80;21120;-86
2021/01/07 06:10:25;;;;;;;135.68;65.22;;;;;;;-0.17;94.27;99919.06;1762101;80;21126;-87
2021/01/07 06:12:53;;;;;;;142.72;75.28;;;;;;;-0.16;94.27;99919.44;1761709;81;21123;-87
2021/01/07 06:15:23;;;;;;;95.12;45.38;;;;;;;-0.16;94.26;99921.59;1761973;80;21158;-87
2021/01/07 06:17:50;;;;;;;88.03;40.80;;;;;;;-0.16;94.25;99918.97;1761785;80;21245;-86
2021/01/07 06:20:21;;;;;;;84.65;31.45;;;;;;;-0.15;94.25;99920.65;1735930;81;21659;-86
2021/01/07 06:22:52;;;;;;;80.70;31.48;;;;;;;-0.14;94.28;99911.81;1762080;80;21150;-86
2021/01/07 06:25:21;;;;;;;83.10;31.93;;;;;;;-0.14;94.26;99914.94;1788842;80;21139;-86
2021/01/07 06:27:51;;;;;;;75.50;34.20;;;;;;;-0.13;94.26;99925.76;1790127;79;22057;-86
2021/01/07 06:30:30;;;;;;;82.75;32.08;;;;;;;-0.13;94.27;99919.20;1780178;80;21608;-85
2021/01/07 06:33:05;;;;;;;73.47;29.87;;;;;;;-0.12;94.28;99925.66;1787350;80;21147;-86
2021/01/07 06:35:35;;;;;;;80.97;30.80;;;;;;;-0.11;94.28;99923.88;1757748;80;21135;-86
2021/01/07 06:38:02;;;;;;;91.70;32.78;;;;;;;-0.13;94.28;99918.73;1756883;80;21595;-86
2021/01/07 06:40:29;;;;;;;92.50;36.08;;;;;;;-0.13;94.28;99921.36;1758698;80;21986;-86
2021/01/07 06:42:57;;;;;;;80.55;32.60;;;;;;;-0.12;94.28;99926.13;1776461;80;21092;-86
2021/01/07 06:45:25;;;;;;;105.50;37.75;;;;;;;-0.11;94.29;99927.80;1784049;80;21179;-86
2021/01/07 06:47:55;;;;;;;85.72;36.70;;;;;;;-0.09;94.30;99928.52;1766647;80;21183;-86
2021/01/07 06:50:23;;;;;;;87.97;32.38;;;;;;;-0.06;94.30;99936.14;1770335;80;21135;-85
2021/01/07 06:52:50;;;;;;;98.80;38.05;;;;;;;-0.04;94.32;99940.81;1718234;80;21179;-86
2021/01/07 06:55:20;;;;;;;84.07;32.83;;;;;;;-0.03;94.31;99941.16;1758737;80;21182;-86
2021/01/07 06:57:55;;;;;;;103.95;39.92;;;;;;;-0.02;94.32;99938.91;1771912;80;21592;-86
2021/01/07 07:00:26;;;;;;;77.85;31.27;;;;;;;-0.03;94.31;99939.84;1766022;80;21131;-85
2021/01/07 07:03:01;;;;;;;89.92;35.08;;;;;;;-0.05;94.33;99944.38;1758710;80;21151;-85
2021/01/07 07:05:36;;;;;;;124.80;46.65;;;;;;;-0.04;94.33;99940.81;1756586;81;21182;-86
2021/01/07 07:08:12;;;;;;;117.90;45.73;;;;;;;-0.05;94.35;99941.75;1768146;80;21148;-86
2021/01/07 07:10:55;;;;;;;90.00;32.03;;;;;;;-0.04;94.34;99943.44;1769390;80;21203;-85
2021/01/07 07:13:28;;;;;;;91.15;32.33;;;;;;;-0.03;94.33;99946.39;1764518;80;21108;-85
2021/01/07 07:16:00;;;;;;;82.10;29.82;;;;;;;-0.04;94.33;99948.67;1768233;79;21189;-84
2021/01/07 07:18:35;;;;;;;100.92;37.73;;;;;;;-0.05;94.34;99949.62;1769248;80;22029;-84
2021/01/07 07:21:17;;;;;;;95.22;34.35;;;;;;;-0.06;94.35;99947.94;1776669;78;21191;-85
2021/01/07 07:23:45;;;;;;;112.88;35.58;;;;;;;-0.05;94.33;99956.17;1762397;80;21183;-85
2021/01/07 07:26:31;;;;;;;79.07;33.85;;;;;;;-0.06;94.32;99953.17;1756836;81;21159;-85
2021/01/07 07:29:03;;;;;;;107.78;37.75;;;;;;;-0.07;94.32;99955.46;1759686;80;21095;-85
2021/01/07 07:31:39;;;;;;;113.03;41.13;;;;;;;-0.08;94.31;99957.71;1769708;80;21200;-84
2021/01/07 07:34:06;;;;;;;142.95;52.13;;;;;;;-0.08;94.33;99956.41;1769858;78;21215;-85
2021/01/07 07:36:34;;;;;;;109.78;42.83;;;;;;;-0.08;94.31;99960.33;1769614;80;21131;-85
2021/01/07 07:39:02;;;;;;;86.53;32.67;;;;;;;-0.07;94.31;99967.25;1773230;78;21130;-84
2021/01/07 07:41:29;;;;;;;99.13;40.60;;;;;;;-0.07;94.32;99962.02;1763259;80;21131;-84
2021/01/07 07:43:57;;;;;;;92.45;34.23;;;;;;;-0.06;94.31;99972.83;1772796;80;21193;-84
2021/01/07 07:46:25;;;;;;;96.60;34.48;;;;;;;-0.06;94.33;99972.36;1779434;80;21177;-84
2021/01/07 07:48:59;;;;;;;98.00;34.85;;;;;;;-0.05;94.31;99970.58;1774787;80;21216;-84
2021/01/07 07:51:27;;;;;;;102.53;37.75;;;;;;;-0.04;94.30;99973.58;1773670;80;21171;-83
2021/01/07 07:54:10;;;;;;;114.65;44.13;;;;;;;-0.06;94.31;99974.14;1770446;80;21202;-84
2021/01/07 07:56:38;;;;;;;132.70;50.48;;;;;;;-0.07;94.32;99987.72;1772965;80;21801;-84
2021/01/07 07:59:07;;;;;;;117.75;49.30;;;;;;;-0.07;94.31;99981.67;1756979;80;21611;-85
2021/01/07 08:01:41;;;;;;;117.17;45.12;;;;;;;-0.09;94.32;99985.70;1773812;80;21218;-84
2021/01/07 08:04:14;;;;;;;110.92;38.95;;;;;;;-0.08;94.31;99981.30;1771961;80;21148;-83
2021/01/07 08:06:43;;;;;;;92.72;36.00;;;;;;;-0.09;94.31;99986.17;1775754;80;21511;-84
2021/01/07 08:09:16;;;;;;;105.20;41.45;;;;;;;-0.10;94.29;99984.48;1773597;80;21151;-84
2021/01/07 08:11:53;;;;;;;93.70;34.05;;;;;;;-0.09;94.31;99992.72;1764717;80;21194;-85
2021/01/07 08:14:25;;;;;;;101.25;35.90;;;;;;;-0.09;94.31;99992.25;1762616;80;21622;-84
2021/01/07 08:16:57;;;;;;;89.58;36.28;;;;;;;-0.09;94.32;99992.72;1766272;80;21130;-84
2021/01/07 08:19:33;;;;;;;113.92;41.37;;;;;;;-0.10;94.32;99995.80;1760504;80;21239;-85
2021/01/07 08:22:02;;;;;;;99.00;34.67;;;;;;;-0.10;94.32;99996.28;1739769;81;21203;-85
2021/01/07 08:24:30;;;;;;;93.30;41.30;;;;;;;-0.10;94.30;99991.03;1741961;81;21245;-84
2021/01/07 08:27:12;;;;;;;108.97;48.52;;;;;;;-0.10;94.30;99996.28;1736231;81;21172;-84
2021/01/07 08:29:58;;;;;;;91.72;36.80;;;;;;;-0.05;94.33;99994.17;1828565;77;22741;-86
2021/01/07 08:32:35;;;;;;;100.62;36.20;;;;;;;-0.10;94.29;99999.73;1794235;78;21168;-85
2021/01/07 08:35:09;;;;;;;90.72;35.30;;;;;;;-0.11;94.32;100002.49;1792568;78;22613;-85
2021/01/07 08:37:36;;;;;;;106.30;43.08;;;;;;;-0.12;94.32;100006.05;1792759;78;21208;-85
2021/01/07 08:40:05;;;;;;;118.47;44.85;;;;;;;-0.09;94.30;100009.28;1785874;78;21145;-84
2021/01/07 08:42:35;;;;;;;;;;;;;;;-0.10;94.30;100010.69;1806164;78;21159;-85
2021/01/07 08:45:02;;;;;;;87.00;31.27;;;;;;;-0.12;94.30;100002.12;1806996;78;20547;-85
2021/01/07 08:47:29;;;;;;;117.72;48.00;;;;;;;-0.11;94.30;100005.11;1804107;78;22664;-85
2021/01/07 08:50:11;;;;;;;99.85;41.15;;;;;;;-0.10;94.30;100010.69;1796899;78;21214;-85
2021/01/07 08:52:52;;;;;;;118.80;48.92;;;;;;;-0.08;94.29;100012.74;1804123;78;21619;-85
2021/01/07 08:55:20;;;;;;;101.20;38.80;;;;;;;-0.11;94.29;100009.05;1798682;78;22473;-84
2021/01/07 08:57:47;;;;;;;86.40;35.33;;;;;;;-0.08;94.30;100008.81;1801558;78;21604;-84
2021/01/07 09:00:17;;;;;;;94.17;37.48;;;;;;;-0.07;94.30;100009.19;1800165;78;21266;-85
2021/01/07 09:02:44;;;;;;;89.67;35.68;;;;;;;-0.06;94.31;100004.28;1808460;78;21659;-84
2021/01/07 09:05:11;;;;;;;90.77;34.55;;;;;;;-0.04;94.33;100011.58;1811413;78;21104;-85
2021/01/07 09:07:37;;;;;;;93.17;34.38;;;;;;;-0.03;94.33;100007.98;1804339;78;21688;-85
2021/01/07 09:10:04;;;;;;;91.12;35.38;;;;;;;-0.03;94.33;100011.45;1811011;78;21154;-84
2021/01/07 09:12:35;;;;;;;86.20;31.05;;;;;;;-0.03;94.33;100010.13;1804750;78;21204;-84
2021/01/07 09:15:11;;;;;;;90.97;41.28;;;;;;;-0.02;94.32;100014.91;1803143;78;21957;-85
2021/01/07 09:17:47;;;;;;;82.45;31.50;;;;;;;-0.02;94.31;100005.73;1804892;78;21156;-85
2021/01/07 09:20:22;;;;;;;79.00;30.82;;;;;;;-0.03;94.32;100010.13;1795336;78;21692;-84
2021/01/07 09:22:49;;;;;;;66.33;28.30;;;;;;;-0.04;94.32;100011.11;1797019;78;21156;-85
2021/01/07 09:25:18;;;;;;;95.07;32.55;;;;;;;-0.01;94.34;100007.41;1796587;78;21265;-85
2021/01/07 09:27:46;;;;;;;66.72;26.65;;;;;;;0.00;94.34;100000.73;1800234;78;21150;-85
2021/01/07 09:30:13;;;;;;;82.53;33.98;;;;;;;0.01;94.34;100004.19;1794884;78;21270;-84
2021/01/07 09:32:40;;;;;;;65.70;26.42;;;;;;;0.00;94.33;100007.78;1794207;79;21171;-84
2021/01/07 09:35:07;;;;;;;65.03;24.70;;;;;;;0.02;94.33;100008.49;1799093;79;21156;-84
2021/01/07 09:37:36;;;;;;;86.53;37.53;;;;;;;0.02;94.35;100005.88;1789907;79;21207;-84
2021/01/07 09:40:04;;;;;;;89.60;40.45;;;;;;;0.03;94.35;100004.94;1794034;78;21748;-86
2021/01/07 09:42:32;;;;;;;70.25;32.63;;;;;;;0.05;94.33;100004.80;1791018;80;22223;-85
2021/01/07 09:45:00;;;;;;;71.53;30.85;;;;;;;0.07;94.35;99999.80;1791836;80;21616;-86
2021/01/07 09:47:26;;;;;;;69.17;28.20;;;;;;;0.06;94.35;99999.46;1760401;80;21223;-85
2021/01/07 09:49:53;;;;;;;80.25;33.38;;;;;;;0.06;94.32;100002.08;1759428;80;21193;-86
2021/01/07 09:52:19;;;;;;;89.83;36.15;;;;;;;0.05;94.34;99999.09;1755312;81;21750;-86
2021/01/07 09:54:48;;;;;;;77.45;34.38;;;;;;;0.06;94.34;99992.91;1755568;81;21239;-85
2021/01/07 09:57:15;;;;;;;69.00;27.22;;;;;;;0.09;94.36;99990.52;1815012;78;21577;-86
2021/01/07 09:59:41;;;;;;;57.08;25.15;;;;;;;0.09;94.37;99993.15;1794715;78;21639;-86
2021/01/07 10:02:09;;;;;;;69.00;27.13;;;;;;;0.08;94.34;99994.92;1793081;79;21195;-86
2021/01/07 10:04:36;;;;;;;82.60;32.83;;;;;;;0.08;94.34;99994.92;1799588;78;21255;-86
2021/01/07 10:07:04;;;;;;;112.75;39.55;;;;;;;0.07;94.36;99987.20;1784241;79;21183;-85
2021/01/07 10:09:30;;;;;;;135.70;50.70;;;;;;;0.05;94.34;99985.98;1791174;80;21175;-84
2021/01/07 10:11:58;;;;;;;159.32;51.58;;;;;;;0.06;94.34;99988.98;1804441;78;21479;-85
2021/01/07 10:14:26;;;;;;;151.15;58.35;;;;;;;0.07;94.35;99985.38;1773570;78;21194;-86
2021/01/07 10:16:58;;;;;;;128.95;44.75;;;;;;;0.10;94.35;99986.49;1783707;80;21187;-85
2021/01/07 10:19:28;;;;;;;111.50;42.98;;;;;;;0.14;94.35;99983.17;1786230;79;21194;-86
2021/01/07 10:22:09;;;;;;;;;;;;;;;0.14;94.36;99982.67;1788123;80;21164;-86
2021/01/07 10:24:45;;;;;;;122.50;48.65;;;;;;;0.17;94.35;99986.88;1788642;78;20616;-86
2021/01/07 10:27:15;;;;;;;118.17;41.80;;;;;;;0.16;94.35;99978.16;1788818;79;22488;-86
2021/01/07 10:29:43;;;;;;;105.47;39.08;;;;;;;0.16;94.36;99978.16;1782399;79;21171;-85
2021/01/07 10:32:11;;;;;;;115.32;39.38;;;;;;;0.16;94.33;99979.47;1781778;80;21617;-86
2021/01/07 10:34:47;;;;;;;101.02;40.12;;;;;;;0.19;94.33;99979.71;1784595;80;21183;-86
2021/01/07 10:37:19;;;;;;;126.72;48.13;;;;;;;0.17;94.32;99978.53;1786486;80;21167;-86
2021/01/07 10:39:47;;;;;;;139.75;59.85;;;;;;;0.21;94.33;99986.50;1777252;78;22133;-86
2021/01/07 10:42:14;;;;;;;117.85;48.52;;;;;;;0.23;94.34;99989.87;1778409;80;21193;-86
2021/01/07 10:44:44;;;;;;;124.87;38.38;;;;;;;0.26;94.35;99985.70;1788666;79;21161;-85
2021/01/07 10:47:11;;;;;;;130.37;54.18;;;;;;;0.27;94.35;99986.07;1777132;80;21632;-86
2021/01/07 10:49:40;;;;;;;120.00;48.40;;;;;;;0.29;94.35;99982.84;1778544;78;21136;-87
2021/01/07 10:52:33;;;;;;;91.00;36.83;;;;;;;0.31;94.34;99986.20;1780884;80;21189;-85
2021/01/07 10:55:19;;;;;;;86.42;36.90;;;;;;;0.31;94.38;99982.27;1783578;80;21131;-86
2021/01/07 10:58:11;;;;;;;112.30;44.88;;;;;;;0.28;94.35;99983.78;1782210;78;21126;-85
2021/01/07 11:00:46;;;;;;;116.10;46.95;;;;;;;0.29;94.36;99985.47;1761653;80;21568;-85
2021/01/07 11:03:30;;;;;;;76.67;28.77;;;;;;;0.30;94.37;99984.52;1793175;80;21138;-84
2021/01/07 11:06:03;;;;;;;86.32;31.75;;;;;;;0.29;94.37;99982.84;1783013;80;21142;-84
2021/01/07 11:08:52;;;;;;;94.85;36.15;;;;;;;0.28;94.34;99977.23;1793160;79;21190;-84
2021/01/07 11:11:43;;;;;;;65.90;23.47;;;;;;;0.32;94.35;99974.74;1793303;80;21106;-85
2021/01/07 11:14:32;;;;;;;92.00;34.03;;;;;;;0.34;94.35;99980.72;1791148;80;21206;-85
2021/01/07 11:17:01;;;;;;;81.75;34.45;;;;;;;0.36;94.34;99982.74;1780127;80;21163;-85
2021/01/07 11:19:27;;;;;;;72.40;34.10;;;;;;;0.37;94.34;99981.80;1790788;80;21395;-84
2021/01/07 11:21:59;;;;;;;67.87;27.37;;;;;;;0.39;94.36;99978.57;1793235;80;21167;-85
2021/01/07 11:24:25;;;;;;;61.15;23.75;;;;;;;0.41;94.34;99977.16;1792280;80;21138;-85
2021/01/07 11:26:52;;;;;;;74.67;28.75;;;;;;;0.41;94.35;99971.45;1792774;80;21186;-84